createdAt,value
2018-03-31T00:01:45.268Z,7.37
2018-03-31T00:04:19.203Z,7.60
2018-03-31T00:06:55.394Z,7.37
2018-03-31T00:09:22.648Z,6.72
2018-03-31T00:11:59.089Z,7.20
2018-03-31T00:14:26.079Z,6.60
2018-03-31T00:16:52.659Z,7.70
2018-03-31T00:19:19.185Z,8.60
2018-03-31T00:21:47.636Z,6.37
2018-03-31T00:24:16.019Z,7.60
2018-03-31T00:26:42.772Z,7.30
2018-03-31T00:29:10.264Z,6.60
2018-03-31T00:31:36.967Z,7.47
2018-03-31T00:34:03.500Z,7.30
2018-03-31T00:36:30.083Z,7.30
2018-03-31T00:38:56.712Z,6.50
2018-03-31T00:41:24.061Z,7.60
2018-03-31T00:43:51.378Z,7.60
2018-03-31T00:46:17.969Z,9.18
2018-03-31T00:48:45.223Z,6.87
2018-03-31T00:51:12.556Z,7.47
2018-03-31T00:53:39.140Z,7.37
2018-03-31T00:56:05.653Z,7.40
2018-03-31T00:58:32.986Z,7.57
2018-03-31T01:00:59.574Z,7.07
2018-03-31T01:03:26.084Z,7.23
2018-03-31T01:05:54.839Z,8.07
2018-03-31T01:08:22.181Z,7.97
2018-03-31T01:10:48.683Z,7.53
2018-03-31T01:13:15.302Z,7.67
2018-03-31T01:15:42.581Z,8.33
2018-03-31T01:18:09.123Z,9.45
2018-03-31T01:20:35.704Z,8.23
2018-03-31T01:23:02.227Z,10.85
2018-03-31T01:25:28.815Z,8.40
2018-03-31T01:27:55.400Z,9.57
2018-03-31T01:30:21.988Z,9.20
2018-03-31T01:32:48.486Z,9.07
2018-03-31T01:35:15.058Z,8.33
2018-03-31T01:37:42.371Z,8.93
2018-03-31T01:40:08.878Z,9.90
2018-03-31T01:42:35.451Z,9.63
2018-03-31T01:45:02.031Z,9.50
2018-03-31T01:47:28.619Z,9.40
2018-03-31T01:49:55.195Z,8.95
2018-03-31T01:52:22.512Z,10.00
2018-03-31T01:54:49.119Z,9.07
2018-03-31T01:57:15.711Z,9.90
2018-03-31T01:59:42.282Z,9.93
2018-03-31T02:02:08.810Z,9.50
2018-03-31T02:04:35.394Z,9.93
2018-03-31T02:07:01.936Z,10.65
2018-03-31T02:12:07.711Z,8.93
2018-03-31T02:14:34.212Z,10.30
2018-03-31T02:17:00.787Z,10.63
2018-03-31T02:19:27.306Z,10.23
2018-03-31T02:21:53.893Z,10.40
2018-03-31T02:24:20.409Z,10.43
2018-03-31T02:26:47.008Z,11.07
2018-03-31T02:29:13.639Z,10.57
2018-03-31T02:31:40.157Z,9.07
2018-03-31T02:34:06.769Z,10.17
2018-03-31T02:36:34.097Z,10.05
2018-03-31T02:39:00.706Z,10.23
2018-03-31T02:41:27.700Z,10.73
2018-03-31T02:43:54.355Z,10.32
2018-03-31T02:46:20.955Z,11.32
2018-03-31T02:48:47.467Z,11.80
2018-03-31T02:51:14.051Z,10.77
2018-03-31T02:53:40.555Z,11.53
2018-03-31T02:56:07.158Z,10.30
2018-03-31T02:58:33.741Z,11.30
2018-03-31T03:01:00.335Z,11.73
2018-03-31T03:03:26.852Z,11.47
2018-03-31T03:05:54.202Z,10.63
2018-03-31T03:08:20.735Z,10.50
2018-03-31T03:10:47.252Z,10.05
2018-03-31T03:13:13.825Z,11.40
2018-03-31T03:15:40.340Z,11.63
2018-03-31T03:18:06.960Z,11.03
2018-03-31T03:20:33.479Z,11.68
2018-03-31T03:23:00.000Z,10.50
2018-03-31T03:25:26.587Z,10.10
2018-03-31T03:27:53.866Z,11.23
2018-03-31T03:30:20.465Z,11.53
2018-03-31T03:32:47.051Z,11.65
2018-03-31T03:35:13.635Z,10.30
2018-03-31T03:37:40.229Z,10.90
2018-03-31T03:40:06.920Z,10.65
2018-03-31T03:42:33.424Z,10.87
2018-03-31T03:44:59.998Z,11.47
2018-03-31T03:47:26.578Z,13.10
2018-03-31T03:49:53.082Z,12.43
2018-03-31T03:52:20.409Z,13.20
2018-03-31T03:54:46.916Z,13.20
2018-03-31T03:57:13.497Z,13.40
2018-03-31T03:59:40.074Z,11.57
2018-03-31T04:02:06.719Z,12.87
2018-03-31T04:04:33.467Z,13.93
2018-03-31T04:07:00.130Z,13.35
2018-03-31T04:09:26.767Z,13.90
2018-03-31T04:11:53.282Z,13.27
2018-03-31T04:14:19.876Z,12.80
2018-03-31T04:16:46.459Z,14.15
2018-03-31T04:19:12.986Z,14.00
2018-03-31T04:21:39.561Z,12.70
2018-03-31T04:24:06.063Z,14.90
2018-03-31T04:26:33.186Z,13.50
2018-03-31T04:29:06.708Z,14.70
2018-03-31T04:31:33.611Z,16.40
2018-03-31T04:34:00.116Z,15.97
2018-03-31T04:36:26.700Z,13.98
2018-03-31T04:38:53.967Z,15.00
2018-03-31T04:41:21.235Z,15.63
2018-03-31T04:43:47.827Z,14.18
2018-03-31T04:46:14.341Z,15.67
2018-03-31T04:48:40.872Z,15.43
2018-03-31T04:51:07.526Z,18.03
2018-03-31T04:53:34.055Z,16.00
2018-03-31T04:56:00.557Z,15.50
2018-03-31T04:58:27.139Z,17.02
2018-03-31T05:00:53.648Z,17.20
2018-03-31T05:03:20.300Z,17.30
2018-03-31T05:05:46.893Z,15.95
2018-03-31T05:08:14.229Z,14.95
2018-03-31T05:10:40.761Z,14.55
2018-03-31T05:13:07.395Z,17.80
2018-03-31T05:15:34.004Z,16.95
2018-03-31T05:18:00.535Z,16.37
2018-03-31T05:20:27.048Z,16.95
2018-03-31T05:22:53.636Z,14.82
2018-03-31T05:25:20.191Z,16.23
2018-03-31T05:27:46.773Z,20.35
2018-03-31T05:30:13.419Z,19.35
2018-03-31T05:32:39.940Z,16.42
2018-03-31T05:35:06.524Z,17.73
2018-03-31T05:37:33.044Z,16.83
2018-03-31T05:39:59.655Z,17.87
2018-03-31T05:42:26.179Z,17.55
2018-03-31T05:44:53.592Z,16.33
2018-03-31T05:47:20.111Z,15.85
2018-03-31T05:49:46.688Z,20.37
2018-03-31T05:52:13.324Z,17.10
2018-03-31T05:54:39.923Z,20.37
2018-03-31T05:57:06.447Z,15.90
2018-03-31T05:59:33.041Z,17.58
2018-03-31T06:01:59.572Z,17.70
2018-03-31T06:04:26.205Z,19.73
2018-03-31T06:06:52.787Z,16.48
2018-03-31T06:09:19.312Z,18.48
2018-03-31T06:11:46.632Z,17.47
2018-03-31T06:14:13.168Z,17.40
2018-03-31T06:16:39.757Z,19.42
2018-03-31T06:19:07.092Z,17.30
2018-03-31T06:21:34.410Z,18.00
2018-03-31T06:24:00.918Z,18.37
2018-03-31T06:26:27.556Z,15.73
2018-03-31T06:28:54.178Z,16.58
2018-03-31T06:31:20.787Z,16.00
2018-03-31T06:33:47.299Z,17.40
2018-03-31T06:36:13.807Z,17.63
2018-03-31T06:38:40.409Z,15.00
2018-03-31T06:41:06.924Z,17.83
2018-03-31T06:43:33.444Z,16.90
2018-03-31T06:46:00.903Z,17.17
2018-03-31T06:48:27.411Z,16.77
2018-03-31T06:50:54.012Z,19.53
2018-03-31T06:53:20.580Z,17.03
2018-03-31T06:55:47.107Z,16.47
2018-03-31T06:58:13.699Z,16.73
2018-03-31T07:00:40.281Z,16.90
2018-03-31T07:03:06.807Z,15.37
2018-03-31T07:05:33.398Z,16.37
2018-03-31T07:07:59.923Z,15.83
2018-03-31T07:10:26.495Z,16.50
2018-03-31T07:12:53.074Z,16.60
2018-03-31T07:15:19.632Z,16.13
2018-03-31T07:17:46.142Z,15.70
2018-03-31T07:20:12.719Z,16.97
2018-03-31T07:22:39.229Z,16.00
2018-03-31T07:25:05.816Z,14.07
2018-03-31T07:27:33.097Z,17.40
2018-03-31T07:30:00.427Z,15.17
2018-03-31T07:32:27.027Z,16.77
2018-03-31T07:34:53.605Z,14.50
2018-03-31T07:37:20.191Z,14.73
2018-03-31T07:39:46.711Z,12.53
2018-03-31T07:42:13.379Z,13.37
2018-03-31T07:44:40.874Z,13.93
2018-03-31T07:47:07.460Z,12.73
2018-03-31T07:49:33.969Z,13.43
2018-03-31T07:52:01.310Z,12.77
2018-03-31T07:54:35.838Z,12.33
2018-03-31T07:57:02.642Z,10.40
2018-03-31T07:59:29.226Z,12.23
2018-03-31T08:01:57.477Z,12.43
2018-03-31T08:04:24.187Z,11.50
2018-03-31T08:06:50.769Z,11.50
2018-03-31T08:09:17.355Z,12.57
2018-03-31T08:11:44.819Z,10.43
2018-03-31T08:14:11.500Z,11.40
2018-03-31T08:16:38.078Z,8.97
2018-03-31T08:19:04.638Z,7.87
2018-03-31T08:21:31.267Z,9.10
2018-03-31T08:23:57.853Z,11.60
2018-03-31T08:26:24.429Z,11.63
2018-03-31T08:28:51.340Z,10.97
2018-03-31T08:31:17.846Z,10.73
2018-03-31T08:33:44.386Z,10.23
2018-03-31T08:36:10.998Z,12.73
2018-03-31T08:38:37.524Z,10.53
2018-03-31T08:41:04.045Z,9.43
2018-03-31T08:43:30.707Z,7.80
2018-03-31T08:45:57.304Z,8.83
2018-03-31T08:48:23.920Z,7.63
2018-03-31T08:50:50.448Z,9.00
2018-03-31T08:53:17.024Z,7.70
2018-03-31T08:55:43.527Z,8.70
2018-03-31T08:58:10.684Z,7.60
2018-03-31T09:00:39.905Z,9.90
2018-03-31T09:03:07.185Z,8.97
2018-03-31T09:05:34.812Z,8.50
2018-03-31T09:08:01.319Z,7.83
2018-03-31T09:10:27.859Z,7.40
2018-03-31T09:12:57.183Z,7.30
2018-03-31T09:15:23.828Z,6.90
2018-03-31T09:17:50.726Z,7.77
2018-03-31T09:20:17.333Z,11.77
2018-03-31T09:22:45.783Z,17.27
2018-03-31T09:25:11.775Z,8.40
2018-03-31T09:27:41.532Z,8.20
2018-03-31T09:30:08.059Z,7.97
2018-03-31T09:32:35.617Z,9.50
2018-03-31T09:35:02.128Z,9.20
2018-03-31T09:37:29.994Z,7.53
2018-03-31T09:39:57.189Z,8.20
2018-03-31T09:42:25.549Z,8.30
2018-03-31T09:44:55.070Z,6.90
2018-03-31T09:47:21.597Z,9.87
2018-03-31T09:49:49.648Z,7.50
2018-03-31T09:52:16.832Z,7.00
2018-03-31T09:54:43.403Z,6.87
2018-03-31T09:57:09.935Z,5.47
2018-03-31T09:59:37.324Z,6.03
2018-03-31T10:02:04.309Z,7.20
2018-03-31T10:04:30.816Z,7.97
2018-03-31T10:06:57.909Z,6.13
2018-03-31T10:09:25.442Z,6.40
2018-03-31T10:11:52.496Z,6.33
2018-03-31T10:14:23.442Z,7.43
2018-03-31T10:16:51.542Z,6.93
2018-03-31T10:19:18.412Z,8.03
2018-03-31T10:21:46.969Z,7.37
2018-03-31T10:24:16.487Z,7.87
2018-03-31T10:26:43.435Z,7.83
2018-03-31T10:29:11.699Z,6.93
2018-03-31T10:31:38.953Z,6.43
2018-03-31T10:34:05.789Z,7.23
2018-03-31T10:36:33.048Z,5.37
2018-03-31T10:39:00.398Z,5.70
2018-03-31T10:41:30.610Z,6.23
2018-03-31T10:44:02.578Z,7.13
2018-03-31T10:46:36.488Z,6.80
2018-03-31T10:49:03.083Z,5.50
2018-03-31T10:51:29.683Z,5.60
2018-03-31T10:53:56.931Z,6.43
2018-03-31T10:56:24.255Z,5.70
2018-03-31T10:58:50.836Z,3.87
2018-03-31T11:01:17.420Z,4.90
2018-03-31T11:03:44.017Z,5.17
2018-03-31T11:06:10.536Z,6.17
2018-03-31T11:08:37.132Z,5.60
2018-03-31T11:11:07.135Z,5.00
2018-03-31T11:13:36.440Z,6.07
2018-03-31T11:16:03.289Z,5.03
2018-03-31T11:18:33.384Z,6.80
2018-03-31T11:21:05.527Z,4.83
2018-03-31T11:23:32.750Z,5.27
2018-03-31T11:25:59.261Z,4.40
2018-03-31T11:28:25.828Z,5.83
2018-03-31T11:30:52.452Z,5.30
2018-03-31T11:33:27.961Z,4.40
2018-03-31T11:36:04.180Z,3.80
2018-03-31T11:38:41.738Z,3.83
2018-03-31T11:41:18.402Z,3.70
2018-03-31T11:43:48.654Z,6.53
2018-03-31T11:46:15.635Z,4.37
2018-03-31T11:48:42.922Z,4.00
2018-03-31T11:51:22.151Z,4.50
2018-03-31T11:53:54.044Z,6.83
2018-03-31T11:56:20.612Z,4.27
2018-03-31T11:58:53.659Z,5.33
2018-03-31T12:01:20.298Z,4.77
2018-03-31T12:03:46.862Z,5.00
2018-03-31T12:06:13.465Z,4.50
2018-03-31T12:08:39.983Z,5.30
2018-03-31T12:11:06.579Z,4.37
2018-03-31T12:13:33.154Z,4.13
2018-03-31T12:16:01.010Z,4.80
2018-03-31T12:18:31.756Z,3.67
2018-03-31T12:21:00.091Z,3.40
2018-03-31T12:23:32.308Z,8.93
2018-03-31T12:25:58.892Z,3.33
2018-03-31T12:28:31.706Z,3.70
2018-03-31T12:30:59.044Z,3.10
2018-03-31T12:33:25.539Z,3.30
2018-03-31T12:35:52.115Z,3.80
2018-03-31T12:38:22.108Z,3.50
2018-03-31T12:40:48.700Z,3.53
2018-03-31T12:43:15.215Z,3.40
2018-03-31T12:45:41.783Z,3.30
2018-03-31T12:48:08.372Z,4.70
2018-03-31T12:50:34.915Z,3.57
2018-03-31T12:53:01.496Z,3.87
2018-03-31T12:55:28.160Z,3.53
2018-03-31T12:57:54.671Z,3.10
2018-03-31T13:00:21.278Z,2.60
2018-03-31T13:02:47.908Z,4.40
2018-03-31T13:05:14.508Z,2.30
2018-03-31T13:07:41.096Z,2.73
2018-03-31T13:10:08.388Z,3.33
2018-03-31T13:12:34.981Z,3.20
2018-03-31T13:15:01.613Z,3.27
2018-03-31T13:17:28.132Z,3.13
2018-03-31T13:19:54.720Z,2.80
2018-03-31T13:22:22.047Z,3.07
2018-03-31T13:24:48.645Z,3.30
2018-03-31T13:27:15.287Z,2.77
2018-03-31T13:29:41.795Z,3.13
2018-03-31T13:32:09.126Z,3.27
2018-03-31T13:34:36.509Z,3.17
2018-03-31T13:37:03.096Z,2.60
2018-03-31T13:39:29.599Z,3.53
2018-03-31T13:41:56.256Z,2.80
2018-03-31T13:44:22.845Z,2.17
2018-03-31T13:46:49.468Z,2.20
2018-03-31T13:49:16.020Z,2.13
2018-03-31T13:51:42.572Z,2.40
2018-03-31T13:54:09.889Z,2.00
2018-03-31T13:56:36.395Z,1.90
2018-03-31T13:59:02.969Z,2.33
2018-03-31T14:01:29.606Z,3.73
2018-03-31T14:03:56.109Z,3.03
2018-03-31T14:06:22.697Z,2.43
2018-03-31T14:08:50.033Z,2.00
2018-03-31T14:11:16.585Z,2.40
2018-03-31T14:13:43.221Z,1.83
2018-03-31T14:16:09.821Z,2.03
2018-03-31T14:18:36.352Z,1.87
2018-03-31T14:21:02.984Z,1.60
2018-03-31T14:23:30.424Z,1.50
2018-03-31T14:25:57.021Z,1.90
2018-03-31T14:28:23.543Z,1.40
2018-03-31T14:30:50.128Z,1.77
2018-03-31T14:33:17.440Z,1.83
2018-03-31T14:35:44.019Z,1.87
2018-03-31T14:38:11.345Z,1.80
2018-03-31T14:40:37.989Z,1.40
2018-03-31T14:43:04.498Z,1.40
2018-03-31T14:45:31.112Z,1.40
2018-03-31T14:47:57.699Z,1.40
2018-03-31T14:50:24.231Z,3.03
2018-03-31T14:52:50.811Z,1.87
2018-03-31T14:55:17.388Z,1.90
2018-03-31T14:57:43.933Z,1.70
2018-03-31T15:00:10.608Z,1.50
2018-03-31T15:02:37.211Z,1.40
2018-03-31T15:05:03.860Z,1.33
2018-03-31T15:07:30.371Z,1.97
2018-03-31T15:09:56.917Z,1.00
2018-03-31T15:12:23.543Z,1.20
2018-03-31T15:14:50.056Z,1.23
2018-03-31T15:17:16.656Z,0.80
2018-03-31T15:19:43.196Z,2.20
2018-03-31T15:22:09.833Z,1.20
2018-03-31T15:24:36.347Z,0.97
2018-03-31T15:27:02.933Z,1.00
2018-03-31T15:29:30.215Z,1.83
2018-03-31T15:31:56.791Z,1.23
2018-03-31T15:34:24.277Z,1.70
2018-03-31T15:36:51.664Z,2.70
2018-03-31T15:39:18.185Z,4.40
2018-03-31T15:41:44.768Z,15.47
2018-03-31T15:44:11.279Z,1.50
2018-03-31T15:46:37.930Z,2.27
2018-03-31T15:49:04.490Z,1.30
2018-03-31T15:51:31.096Z,1.30
2018-03-31T15:53:57.610Z,0.93
2018-03-31T15:56:24.213Z,2.40
2018-03-31T15:58:50.812Z,1.20
2018-03-31T16:01:17.382Z,1.80
2018-03-31T16:03:43.965Z,1.00
2018-03-31T16:06:10.556Z,3.27
2018-03-31T16:08:37.083Z,2.50
2018-03-31T16:11:03.668Z,0.83
2018-03-31T16:13:30.253Z,1.53
2018-03-31T16:15:56.849Z,0.83
2018-03-31T16:18:23.372Z,2.20
2018-03-31T16:20:50.703Z,1.97
2018-03-31T16:23:17.276Z,1.93
2018-03-31T16:25:44.596Z,1.03
2018-03-31T16:28:11.210Z,0.83
2018-03-31T16:30:37.753Z,1.13
2018-03-31T16:33:04.271Z,9.47
2018-03-31T16:35:30.903Z,3.20
2018-03-31T16:37:57.414Z,1.80
2018-03-31T16:40:23.978Z,1.50
2018-03-31T16:42:50.559Z,2.40
2018-03-31T16:45:17.150Z,1.47
2018-03-31T16:47:43.757Z,1.57
2018-03-31T16:50:11.100Z,1.87
2018-03-31T16:52:37.607Z,5.90
2018-03-31T16:55:04.191Z,11.70
2018-03-31T16:57:30.859Z,2.60
2018-03-31T16:59:57.512Z,1.40
2018-03-31T17:02:24.103Z,11.00
2018-03-31T17:04:51.420Z,9.70
2018-03-31T17:07:17.934Z,19.53
2018-03-31T17:09:44.525Z,2.30
2018-03-31T17:12:11.850Z,1.33
2018-03-31T17:14:38.353Z,2.20
2018-03-31T17:17:04.993Z,1.50
2018-03-31T17:19:31.581Z,1.60
2018-03-31T17:21:58.183Z,1.33
2018-03-31T17:24:24.771Z,1.60
2018-03-31T17:26:52.101Z,1.70
2018-03-31T17:29:18.705Z,3.10
2018-03-31T17:31:45.236Z,1.17
2018-03-31T17:34:11.764Z,2.50
2018-03-31T17:36:38.344Z,1.43
2018-03-31T17:39:05.026Z,3.80
2018-03-31T17:41:31.590Z,2.77
2018-03-31T17:43:58.107Z,2.60
2018-03-31T17:46:24.708Z,1.97
2018-03-31T17:48:51.287Z,1.33
2018-03-31T17:51:17.813Z,2.00
2018-03-31T17:53:45.125Z,1.10
2018-03-31T17:56:22.131Z,1.23
2018-03-31T17:58:49.601Z,1.53
2018-03-31T18:01:16.896Z,2.20
2018-03-31T18:03:43.504Z,1.43
2018-03-31T18:06:10.054Z,2.90
2018-03-31T18:08:36.636Z,1.70
2018-03-31T18:11:03.213Z,3.13
2018-03-31T18:13:30.472Z,2.17
2018-03-31T18:15:57.072Z,1.97
2018-03-31T18:18:23.576Z,1.97
2018-03-31T18:20:50.177Z,1.63
2018-03-31T18:23:17.567Z,2.47
2018-03-31T18:25:44.165Z,1.93
2018-03-31T18:28:11.427Z,1.70
2018-03-31T18:30:38.751Z,2.30
2018-03-31T18:33:05.396Z,3.53
2018-03-31T18:35:31.901Z,7.80
2018-03-31T18:37:58.480Z,9.03
2018-03-31T18:40:25.808Z,14.23
2018-03-31T18:42:52.393Z,12.20
2018-03-31T18:45:18.959Z,8.03
2018-03-31T18:47:45.600Z,6.43
2018-03-31T18:50:12.105Z,4.40
2018-03-31T18:52:38.670Z,5.57
2018-03-31T18:55:05.189Z,3.27
2018-03-31T18:57:31.767Z,4.73
2018-03-31T18:59:58.277Z,5.17
2018-03-31T19:02:24.855Z,3.40
2018-03-31T19:04:51.364Z,4.13
2018-03-31T19:07:18.010Z,4.00
2018-03-31T19:09:44.525Z,4.33
2018-03-31T19:12:11.102Z,3.60
2018-03-31T19:14:42.520Z,5.60
2018-03-31T19:17:14.020Z,4.10
2018-03-31T19:19:40.589Z,4.93
2018-03-31T19:22:07.107Z,3.73
2018-03-31T19:24:40.401Z,9.67
2018-03-31T19:27:07.660Z,4.07
2018-03-31T19:29:34.220Z,2.50
2018-03-31T19:32:00.801Z,3.53
2018-03-31T19:34:27.380Z,3.00
2018-03-31T19:36:53.944Z,2.57
2018-03-31T19:39:26.260Z,3.70
2018-03-31T19:41:52.935Z,4.10
2018-03-31T19:44:19.451Z,4.80
2018-03-31T19:46:46.047Z,5.40
2018-03-31T19:49:12.545Z,4.40
2018-03-31T19:51:39.128Z,5.53
2018-03-31T19:54:05.647Z,5.30
2018-03-31T19:56:32.219Z,3.43
2018-03-31T19:58:58.793Z,2.90
2018-03-31T20:01:25.383Z,2.10
2018-03-31T20:03:51.887Z,3.70
2018-03-31T20:06:18.463Z,7.23
2018-03-31T20:08:45.037Z,2.23
2018-03-31T20:11:11.561Z,3.23
2018-03-31T20:13:38.187Z,3.17
2018-03-31T20:16:04.724Z,2.97
2018-03-31T20:18:31.268Z,5.00
2018-03-31T20:20:58.612Z,5.20
2018-03-31T20:23:25.139Z,2.47
2018-03-31T20:25:51.654Z,2.60
2018-03-31T20:28:18.233Z,5.20
2018-03-31T20:30:44.872Z,2.13
2018-03-31T20:33:11.447Z,2.20
2018-03-31T20:35:38.022Z,2.63
2018-03-31T20:38:04.555Z,2.10
2018-03-31T20:40:31.059Z,2.13
2018-03-31T20:42:57.640Z,3.40
2018-03-31T20:45:24.146Z,4.03
2018-03-31T20:47:50.715Z,4.93
2018-03-31T20:50:17.298Z,4.20
2018-03-31T20:52:43.872Z,3.87
2018-03-31T20:55:10.432Z,3.80
2018-03-31T20:57:37.011Z,3.43
2018-03-31T21:00:03.532Z,3.20
2018-03-31T21:02:30.780Z,2.37
2018-03-31T21:04:58.087Z,1.80
2018-03-31T21:07:24.589Z,2.40
2018-03-31T21:09:51.172Z,2.60
2018-03-31T21:12:17.673Z,2.97
2018-03-31T21:14:44.184Z,3.07
2018-03-31T21:17:10.764Z,4.37
2018-03-31T21:19:37.277Z,4.17
2018-03-31T21:22:03.853Z,3.47
2018-03-31T21:24:30.365Z,3.20
2018-03-31T21:26:56.941Z,2.80
2018-03-31T21:29:23.519Z,3.43
2018-03-31T21:31:50.103Z,2.03
2018-03-31T21:34:16.678Z,4.70
2018-03-31T21:36:43.995Z,1.90
2018-03-31T21:39:15.959Z,2.17
2018-03-31T21:41:43.824Z,1.93
2018-03-31T21:44:10.455Z,2.60
2018-03-31T21:46:37.013Z,2.23
2018-03-31T21:49:03.593Z,2.60
2018-03-31T21:51:30.178Z,13.63
2018-03-31T21:53:56.774Z,11.00
2018-03-31T21:56:23.384Z,10.33
2018-03-31T21:58:50.645Z,4.47
2018-03-31T22:01:17.982Z,4.93
2018-03-31T22:03:44.501Z,4.13
2018-03-31T22:06:11.093Z,2.67
2018-03-31T22:08:37.677Z,3.13
2018-03-31T22:11:05.060Z,4.27
2018-03-31T22:13:47.302Z,6.47
2018-03-31T22:16:13.878Z,2.50
2018-03-31T22:18:40.404Z,2.80
2018-03-31T22:21:06.999Z,3.03
2018-03-31T22:23:33.542Z,2.97
2018-03-31T22:26:00.064Z,2.50
2018-03-31T22:28:27.389Z,3.07
2018-03-31T22:30:53.908Z,4.23
2018-03-31T22:33:20.492Z,4.03
2018-03-31T22:35:47.010Z,3.20
2018-03-31T22:38:14.414Z,3.93
2018-03-31T22:40:40.919Z,2.97
2018-03-31T22:43:08.185Z,3.03
2018-03-31T22:45:34.761Z,4.87
2018-03-31T22:48:01.352Z,10.00
2018-03-31T22:50:28.614Z,3.50
2018-03-31T22:52:55.187Z,4.03
2018-03-31T22:55:21.755Z,3.33
2018-03-31T22:57:48.287Z,3.57
2018-03-31T23:00:14.859Z,3.40
2018-03-31T23:02:42.103Z,2.80
2018-03-31T23:05:09.356Z,3.17
2018-03-31T23:07:36.689Z,3.83
2018-03-31T23:10:03.330Z,3.53
2018-03-31T23:12:29.859Z,3.73
2018-03-31T23:14:56.436Z,3.37
2018-03-31T23:17:23.681Z,3.73
2018-03-31T23:19:51.026Z,4.33
2018-03-31T23:22:18.339Z,3.53
2018-03-31T23:24:44.924Z,4.37
2018-03-31T23:27:12.183Z,4.50
2018-03-31T23:29:38.699Z,3.13
2018-03-31T23:32:05.286Z,3.33
2018-03-31T23:34:31.859Z,4.20
2018-03-31T23:36:58.375Z,3.60
2018-03-31T23:39:24.941Z,3.93
2018-03-31T23:42:02.429Z,3.73
2018-03-31T23:44:30.160Z,3.63
2018-03-31T23:47:05.627Z,3.47
2018-03-31T23:49:40.425Z,4.47
2018-03-31T23:52:15.742Z,3.00
2018-03-31T23:54:42.987Z,3.90
2018-03-31T23:57:19.143Z,4.30
2018-03-31T23:59:55.305Z,3.43
